Terminal Aerodrome Forecast
Issued by NWS

Home | Current Version | Previous Version | Text Only | Print | Product List | Glossary On
Versions: 1 2 3 4 5 6 7 8 9 10 11 12 13
000
FTUS46 KMTR 301120
TAFOAK
TAF
KOAK 301120Z 3012/3118 27006KT P6SM BKN012
     FM301700 25008KT P6SM SCT015
     FM301900 25008KT P6SM SKC
     FM302100 27014KT P6SM SKC
     FM310300 28012KT P6SM FEW020
     FM310900 28007KT P6SM SCT015
     FM311100 28005KT P6SM BKN015=

USA.gov is the U.S. government's official web portal to all federal, state and local government web resources and services.